Sunday, February 1, 2015, 1:07 PM EST

KLKU, Louisa, Louisa County Airport/freeman Field

Location: Louisa, VA, United States Lat: 38.01
Local Time: 1:07 PM EST (18:07 GMT) Lon: -77.97
Time Zone: US/Eastern Elev: 492 ft

Show me the last for .
Show Decoded

2015-02-01 12:55 METAR KLKU 011755Z AUTO 15003KT 10SM SCT075 SCT080 SCT110 08/M10 A3014 RMK AO2 =
2015-02-01 12:36 METAR KLKU 011736Z AUTO 15006KT 10SM BKN075 08/M09 A3015 RMK AO2 =
2015-02-01 12:35 METAR KLKU 011735Z AUTO 15006KT 10SM SCT075 BKN080 08/M09 A3015 RMK AO2 =
2015-02-01 12:15 METAR KLKU 011715Z AUTO 16005KT 10SM SCT085 120 07/M09 A3017 RMK AO2 =
2015-02-01 11:55 METAR KLKU 011655Z AUTO 16005KT 10SM 07/M09 A3019 RMK AO2 =
2015-02-01 11:35 METAR KLKU 011635Z AUTO 15006KT 10SM 06/M08 A3020 RMK AO2 =
2015-02-01 11:15 METAR KLKU 011615Z AUTO 18004KT 10SM OVC080 04/M08 A3023 RMK AO2 =
2015-02-01 10:55 METAR KLKU 011555Z AUTO 17003KT 10SM OVC080 03/M07 A3025 RMK AO2 =
2015-02-01 10:35 METAR KLKU 011535Z AUTO 00000KT 10SM OVC080 02/M07 A3026 RMK AO2 =
2015-02-01 10:15 METAR KLKU 011515Z AUTO 18003KT 10SM BKN090 BKN110 02/M07 A3026 RMK AO2 =
2015-02-01 09:55 METAR KLKU 011455Z AUTO 20005KT 10SM BKN090 02/M06 A3026 RMK AO2 =
2015-02-01 09:35 METAR KLKU 011435Z AUTO 18003KT 10SM 01/M07 A3025 RMK AO2 =
2015-02-01 09:15 METAR KLKU 011415Z AUTO 19003KT 10SM 01/M07 A3026 RMK AO2 =
2015-02-01 08:55 METAR KLKU 011355Z AUTO 13004KT 10SM BKN120 00/M07 A3025 RMK AO2 =
2015-02-01 08:35 METAR KLKU 011335Z AUTO 00000KT 10SM OVC110 00/M07 A3026 RMK AO2 =
2015-02-01 08:15 METAR KLKU 011315Z AUTO 14003KT 10SM BKN110 00/M07 A3025 RMK AO2 =
2015-02-01 07:55 METAR KLKU 011255Z AUTO 11004KT 10SM SCT080 BKN110 M01/M07 A3025 RMK AO2 =
2015-02-01 07:35 METAR KLKU 011235Z AUTO 12004KT 10SM SCT048 BKN080 BKN100 M01/M08 A3025 RMK AO2
                 =
2015-02-01 07:15 METAR KLKU 011215Z AUTO 11004KT 10SM BKN050 BKN060 OVC090 M01/M08 A3026 RMK AO2
                 =
2015-02-01 06:55 METAR KLKU 011155Z AUTO 12005KT 10SM SCT046 BKN060 OVC090 M01/M09 A3026 RMK AO2
                 =
2015-02-01 06:35 METAR KLKU 011135Z AUTO 13005KT 10SM BKN050 OVC110 M01/M10 A3026 RMK AO2 =
2015-02-01 06:15 METAR KLKU 011115Z AUTO 00000KT 10SM BKN060 BKN080 BKN110 M01/M11 A3026 RMK AO2
                 =
2015-02-01 05:35 METAR KLKU 011035Z AUTO 12003KT 10SM OVC100 M02/M08 A3025 RMK AO2 =
2015-02-01 05:15 METAR KLKU 011015Z AUTO 00000KT 10SM SCT080 OVC110 M02/M09 A3026 RMK AO2 =
2015-02-01 04:55 METAR KLKU 010955Z AUTO 00000KT 10SM BKN110 M02/M11 A3024 RMK AO2 =
2015-02-01 04:35 METAR KLKU 010935Z AUTO 00000KT 10SM SCT075 OVC110 M02/M11 A3024 RMK AO2 =
2015-02-01 04:15 METAR KLKU 010915Z AUTO 00000KT 10SM SCT070 SCT100 120 M02/M10 A3024 RMK AO2 =
2015-02-01 03:55 METAR KLKU 010855Z AUTO 00000KT 10SM SCT070 BKN100 M02/M10 A3023 RMK AO2 =
2015-02-01 03:35 METAR KLKU 010835Z AUTO 00000KT 10SM OVC110 M02/M11 A3024 RMK AO2 =
2015-02-01 03:15 METAR KLKU 010815Z AUTO 03003KT 10SM BKN110 M02/M11 A3024 RMK AO2 =
2015-02-01 02:55 METAR KLKU 010755Z AUTO 06003KT 10SM CLR M03/M11 A3024 RMK AO2 =
2015-02-01 02:35 METAR KLKU 010735Z AUTO 03003KT 10SM CLR M03/M12 A3024 RMK AO2 =
2015-02-01 02:15 METAR KLKU 010715Z AUTO 00000KT 10SM CLR M03/M12 A3025 RMK AO2 =
2015-02-01 01:55 METAR KLKU 010655Z AUTO 00000KT 10SM CLR M03/M11 A3025 RMK AO2 =
2015-02-01 01:35 METAR KLKU 010635Z AUTO 00000KT 10SM CLR M03/M12 A3024 RMK AO2 =
2015-02-01 01:15 METAR KLKU 010615Z AUTO 35004KT 10SM CLR M03/M11 A3023 RMK AO2 =
2015-02-01 00:55 METAR KLKU 010555Z AUTO 00000KT 10SM CLR M03/M11 A3023 RMK AO2 =
2015-02-01 00:35 METAR KLKU 010535Z AUTO 00000KT 10SM CLR M03/M11 A3023 RMK AO2 =
2015-02-01 00:15 METAR KLKU 010515Z AUTO 00000KT 10SM CLR M03/M11 A3023 RMK AO2 =
2015-01-31 23:55 METAR KLKU 010455Z AUTO 00000KT 10SM CLR M03/M11 A3023 RMK AO2 =
2015-01-31 23:35 METAR KLKU 010435Z AUTO 00000KT 10SM CLR M04/M11 A3023 RMK AO2 =
2015-01-31 23:15 METAR KLKU 010415Z AUTO 00000KT 10SM CLR M04/M12 A3023 RMK AO2 =
2015-01-31 22:55 METAR KLKU 010355Z AUTO 00000KT 10SM CLR M03/M12 A3023 RMK AO2 =
2015-01-31 22:35 METAR KLKU 010335Z AUTO 00000KT 10SM CLR M03/M12 A3023 RMK AO2 =
2015-01-31 22:15 METAR KLKU 010315Z AUTO 00000KT 10SM CLR M03/M12 A3023 RMK AO2 =
2015-01-31 21:55 METAR KLKU 010255Z AUTO 00000KT 10SM CLR M04/M13 A3024 RMK AO2 =
2015-01-31 21:35 METAR KLKU 010235Z AUTO 00000KT 10SM CLR M03/M15 A3024 RMK AO2 =
2015-01-31 20:55 METAR KLKU 010155Z AUTO 00000KT 10SM CLR M03/M14 A3024 RMK AO2 =
2015-01-31 20:35 METAR KLKU 010135Z AUTO 00000KT 10SM CLR M03/M14 A3024 RMK AO2 =
2015-01-31 19:55 METAR KLKU 010055Z AUTO 00000KT 10SM CLR M03/M15 A3024 RMK AO2 =
2015-01-31 19:35 METAR KLKU 010035Z AUTO 00000KT 10SM CLR M02/M14 A3024 RMK AO2 =
2015-01-31 19:15 METAR KLKU 010015Z AUTO 00000KT 10SM CLR M03/M14 A3024 RMK AO2 =
2015-01-31 18:55 METAR KLKU 312355Z AUTO 00000KT 10SM CLR M03/M13 A3025 RMK AO2 =
2015-01-31 18:35 METAR KLKU 312335Z AUTO 00000KT 10SM CLR M02/M14 A3024 RMK AO2 =
2015-01-31 18:15 METAR KLKU 312315Z AUTO 00000KT 10SM CLR M02/M14 A3024 RMK AO2 =
2015-01-31 17:55 METAR KLKU 312255Z AUTO 00000KT 10SM CLR M02/M13 A3024 RMK AO2 =
2015-01-31 17:35 METAR KLKU 312235Z AUTO 00000KT 10SM CLR 00/M14 A3023 RMK AO2 =
2015-01-31 17:15 METAR KLKU 312215Z AUTO 00000KT 10SM CLR 03/M15 A3023 RMK AO2 =
2015-01-31 16:55 METAR KLKU 312155Z AUTO 00000KT 10SM CLR 04/M16 A3023 RMK AO2 =
2015-01-31 16:35 METAR KLKU 312135Z AUTO 25003KT 10SM CLR 05/M16 A3023 RMK AO2 =
2015-01-31 16:15 METAR KLKU 312115Z AUTO 26004KT 10SM CLR 06/M16 A3023 RMK AO2 =
2015-01-31 15:55 METAR KLKU 312055Z AUTO 25004KT 10SM CLR 06/M16 A3022 RMK AO2 =
2015-01-31 15:35 METAR KLKU 312035Z AUTO 23005KT 10SM CLR 06/M16 A3022 RMK AO2 =
2015-01-31 15:15 METAR KLKU 312015Z AUTO 24009KT 10SM CLR 06/M16 A3022 RMK AO2 =
2015-01-31 14:55 METAR KLKU 311955Z AUTO 25008G14KT 10SM CLR 06/M16 A3023 RMK AO2 =
2015-01-31 14:35 METAR KLKU 311935Z AUTO 24004KT 10SM CLR 06/M16 A3023 RMK AO2 =
2015-01-31 14:15 METAR KLKU 311915Z AUTO 29004KT 10SM CLR 05/M16 A3024 RMK AO2 =
2015-01-31 13:55 METAR KLKU 311855Z AUTO 26006KT 10SM CLR 04/M16 A3024 RMK AO2 =
2015-01-31 13:35 METAR KLKU 311835Z AUTO 27009KT 10SM CLR 04/M16 A3025 RMK AO2 =
2015-01-31 13:15 METAR KLKU 311815Z AUTO 27003KT 10SM CLR 04/M16 A3026 RMK AO2 =

Support USWX by starting your Amazon purchase here.